Time;durP1;ratioP1;P1;durP2;ratioP2;P2;SDS_P1;SDS_P2;PMS_P1;PMS_P2;Temp;Humidity;BMP_temperature;BMP_pressure;BME280_temperature;BME280_humidity;BME280_pressure;Samples;Min_cycle;Max_cycle;Signal;HPM_P1;HPM_P2
2022/12/21 00:01:15;;;;;;;22.40;6.18;;;8.20;99.90;;;7.37;100.00;101103.56;4168898;28;20032;-72
2022/12/21 00:03:15;;;;;;;18.48;6.55;;;8.30;99.90;;;7.46;100.00;101100.16;4167720;28;20025;-72
2022/12/21 00:05:16;;;;;;;15.07;5.78;;;8.40;99.90;;;7.52;100.00;101107.53;4168636;28;20021;-72
2022/12/21 00:07:17;;;;;;;17.50;6.53;;;8.40;99.90;;;7.56;100.00;101094.97;4168960;28;20037;-72
2022/12/21 00:09:18;;;;;;;14.60;5.53;;;8.50;99.90;;;7.60;100.00;101099.84;4168720;28;20080;-72
2022/12/21 00:11:21;;;;;;;14.20;5.45;;;8.50;99.90;;;7.69;100.00;101109.56;4168788;28;20091;-72
2022/12/21 00:13:23;;;;;;;21.55;5.97;;;8.60;99.90;;;7.70;100.00;101095.50;4168789;28;20033;-72
2022/12/21 00:15:23;;;;;;;20.67;5.97;;;8.60;99.90;;;7.80;100.00;101106.03;4168403;28;20084;-72
2022/12/21 00:17:24;;;;;;;13.10;4.65;;;8.70;99.90;;;7.86;100.00;101102.88;4168784;28;20025;-72
2022/12/21 00:19:25;;;;;;;13.98;4.70;;;8.80;99.90;;;7.92;100.00;101109.41;4168484;28;20033;-72
2022/12/21 00:21:31;;;;;;;16.30;5.72;;;8.80;99.90;;;7.95;100.00;101110.00;4168675;28;20029;-72
2022/12/21 00:23:34;;;;;;;14.05;4.90;;;8.80;99.90;;;7.98;100.00;101114.97;4167538;28;20412;-72
2022/12/21 00:25:35;;;;;;;16.98;5.22;;;8.90;99.90;;;7.98;100.00;101114.16;4167482;28;20551;-72
2022/12/21 00:27:35;;;;;;;19.17;5.72;;;8.90;99.90;;;8.00;100.00;101112.25;4167680;28;20033;-72
2022/12/21 00:29:36;;;;;;;15.43;5.57;;;8.90;99.90;;;8.00;100.00;101113.09;4168694;28;20029;-72
2022/12/21 00:31:40;;;;;;;13.07;4.60;;;8.90;99.90;;;7.94;100.00;101104.88;4168571;28;20045;-72
2022/12/21 00:33:44;;;;;;;14.13;5.72;;;8.90;99.90;;;7.93;100.00;101103.22;4167264;28;20041;-72
2022/12/21 00:35:52;;;;;;;14.30;5.10;;;8.90;99.90;;;8.00;100.00;101107.81;4167166;28;20555;-72
2022/12/21 00:37:52;;;;;;;17.05;4.85;;;8.90;99.90;;;8.00;100.00;101105.19;4168545;28;20032;-72
2022/12/21 00:39:53;;;;;;;13.45;5.20;;;8.90;99.90;;;8.01;100.00;101103.38;4168934;28;20029;-72
2022/12/21 00:41:54;;;;;;;18.25;5.03;;;9.00;99.90;;;8.04;100.00;101100.50;4168720;28;20025;-72
2022/12/21 00:43:56;;;;;;;21.13;5.55;;;9.00;99.90;;;8.04;100.00;101118.88;4168622;28;20496;-72
2022/12/21 00:45:57;;;;;;;15.68;5.68;;;9.00;99.90;;;8.05;100.00;101110.06;4168546;28;20396;-72
2022/12/21 00:47:58;;;;;;;18.60;5.32;;;9.00;99.90;;;8.00;100.00;101099.94;4167130;28;20033;-72
2022/12/21 00:49:59;;;;;;;24.08;5.85;;;9.00;99.90;;;8.04;100.00;101114.47;4168199;28;20022;-72
2022/12/21 00:52:00;;;;;;;13.50;5.30;;;9.00;99.90;;;8.06;100.00;101103.84;4168602;28;20026;-72
2022/12/21 00:54:01;;;;;;;12.77;5.38;;;9.00;99.90;;;8.05;100.00;101091.66;4161559;28;20022;-72
2022/12/21 00:56:05;;;;;;;17.30;4.80;;;9.00;99.90;;;8.08;100.00;101094.88;4162438;28;20025;-72
2022/12/21 00:58:06;;;;;;;;;;;9.00;99.90;;;8.09;100.00;101095.69;4151140;28;20030;-72
2022/12/21 01:00:09;;;;;;;13.90;4.68;;;9.10;99.90;;;8.11;100.00;101104.28;4168556;28;19916;-72
2022/12/21 01:02:10;;;;;;;18.48;5.15;;;9.10;99.90;;;8.11;100.00;101091.13;4168489;28;20029;-72
2022/12/21 01:04:11;;;;;;;15.70;6.00;;;9.00;99.90;;;8.13;100.00;101091.81;4168368;28;20519;-72
2022/12/21 01:06:25;;;;;;;17.42;4.85;;;9.10;99.90;;;8.11;100.00;101081.47;4168008;28;20044;-72
2022/12/21 01:08:26;;;;;;;17.30;6.20;;;9.10;99.90;;;8.14;100.00;101085.63;4169611;28;20056;-72
2022/12/21 01:10:26;;;;;;;16.23;4.45;;;9.10;99.90;;;8.14;100.00;101072.47;4171446;28;20635;-72
2022/12/21 01:12:27;;;;;;;11.77;4.68;;;9.10;99.90;;;8.18;100.00;101073.88;4170192;28;20057;-72
2022/12/21 01:14:28;;;;;;;14.15;4.28;;;9.10;99.90;;;8.09;100.00;101079.94;4171104;28;20017;-72
2022/12/21 01:16:31;;;;;;;18.20;5.00;;;9.00;99.90;;;7.96;100.00;101071.44;4171145;28;20045;-72
2022/12/21 01:18:32;;;;;;;15.50;5.00;;;8.90;99.90;;;7.82;100.00;101066.53;4171253;28;20485;-72
2022/12/21 01:20:33;;;;;;;14.00;4.60;;;8.80;99.90;;;7.71;100.00;101062.16;4171023;28;20029;-72
2022/12/21 01:22:34;;;;;;;13.70;4.32;;;8.70;99.90;;;7.65;100.00;101063.53;4171081;28;20464;-72
2022/12/21 01:24:35;;;;;;;14.20;6.07;;;8.70;99.90;;;7.58;100.00;101065.03;4171204;28;20029;-72
2022/12/21 01:26:36;;;;;;;15.60;5.15;;;8.60;99.90;;;7.58;100.00;101062.41;4171222;28;20076;-72
2022/12/21 01:28:37;;;;;;;12.70;5.10;;;8.60;99.90;;;7.59;100.00;101058.78;4169981;28;20037;-72
2022/12/21 01:30:38;;;;;;;15.05;5.47;;;8.60;99.90;;;7.52;100.00;101067.31;4169849;28;20111;-72
2022/12/21 01:32:39;;;;;;;12.40;5.15;;;8.50;99.90;;;7.47;100.00;101077.34;4153063;28;20592;-72
2022/12/21 01:34:40;;;;;;;11.90;5.25;;;8.40;99.90;;;7.33;100.00;101062.75;4170800;28;20018;-72
2022/12/21 01:36:41;;;;;;;13.93;5.53;;;8.30;99.90;;;7.28;100.00;101066.72;4169864;28;20512;-72
2022/12/21 01:38:43;;;;;;;17.27;5.50;;;8.30;99.90;;;7.20;100.00;101068.19;4170815;28;20030;-72
2022/12/21 01:40:44;;;;;;;14.43;4.72;;;8.20;99.90;;;7.16;100.00;101068.59;4171043;28;20025;-72
2022/12/21 01:42:45;;;;;;;17.05;5.35;;;8.10;99.90;;;7.09;100.00;101065.63;4171012;28;20025;-72
2022/12/21 01:45:04;;;;;;;15.45;5.60;;;8.10;99.90;;;7.02;100.00;101069.69;4169701;28;20512;-72
2022/12/21 01:47:10;;;;;;;12.15;4.68;;;8.00;99.90;;;6.99;100.00;101067.31;4169571;28;20109;-72
2022/12/21 01:49:20;;;;;;;15.38;4.75;;;8.00;99.90;;;6.93;100.00;101069.63;4169781;28;20111;-72
2022/12/21 01:51:22;;;;;;;12.57;4.85;;;7.90;99.90;;;6.88;100.00;101071.78;4169467;28;20029;-72
2022/12/21 01:53:41;;;;;;;12.75;4.78;;;7.90;99.90;;;6.84;100.00;101073.00;4168015;28;20034;-72
2022/12/21 01:55:46;;;;;;;10.55;5.22;;;7.90;99.90;;;6.79;100.00;101069.91;4166512;28;20029;-72
2022/12/21 01:57:47;;;;;;;12.10;5.25;;;7.80;99.90;;;6.75;100.00;101065.88;4169678;28;20524;-72
2022/12/21 01:59:56;;;;;;;12.73;5.15;;;7.70;99.90;;;6.71;100.00;101075.78;4168876;28;20025;-72
2022/12/21 02:02:07;;;;;;;11.60;4.45;;;7.70;99.90;;;6.71;100.00;101083.63;4170771;28;20493;-72
2022/12/21 02:04:08;;;;;;;13.15;4.70;;;7.70;99.90;;;6.65;100.00;101074.47;4169493;28;20079;-72
2022/12/21 02:06:45;;;;;;;12.23;4.88;;;7.60;99.90;;;6.61;100.00;101065.19;4169146;28;20034;-72
2022/12/21 02:08:48;;;;;;;17.27;4.70;;;7.60;99.90;;;6.60;100.00;101060.88;4169488;28;20018;-72
2022/12/21 02:10:53;;;;;;;11.93;4.15;;;7.60;99.90;;;6.57;100.00;101065.56;4169441;28;20028;-72
2022/12/21 02:13:13;;;;;;;10.18;4.03;;;7.50;99.90;;;6.55;100.00;101068.28;4153067;28;20033;-72
2022/12/21 02:15:14;;;;;;;7.85;3.58;;;7.50;99.90;;;6.48;100.00;101067.09;4168672;28;20113;-72
2022/12/21 02:17:44;;;;;;;15.05;4.20;;;7.50;99.90;;;6.47;100.00;101075.94;4180848;28;20029;-72
2022/12/21 02:20:16;;;;;;;7.85;3.80;;;7.40;99.90;;;6.44;100.00;101070.94;4168422;28;20042;-72
2022/12/21 02:23:20;;;;;;;6.68;3.58;;;7.40;99.90;;;6.40;100.00;101080.00;4170310;28;20030;-72
2022/12/21 02:26:04;;;;;;;10.38;4.57;;;7.40;99.90;;;6.36;100.00;101075.13;4170207;28;20030;-72
2022/12/21 02:28:16;;;;;;;10.85;4.85;;;7.30;99.90;;;6.33;100.00;101073.56;4160857;28;20025;-72
2022/12/21 02:30:22;;;;;;;12.00;4.05;;;7.30;99.90;;;6.31;100.00;101078.09;4168865;28;20029;-72
2022/12/21 02:33:23;;;;;;;14.05;4.78;;;7.20;99.90;;;6.26;100.00;101080.25;4168889;28;20029;-72
2022/12/21 02:36:07;;;;;;;6.72;3.20;;;7.20;99.90;;;6.21;100.00;101084.19;4169930;28;20404;-72
2022/12/21 02:38:43;;;;;;;9.13;3.50;;;7.20;99.90;;;6.15;100.00;101085.50;4161683;28;20021;-72
2022/12/21 02:40:55;;;;;;;;;;;7.10;99.90;;;6.06;100.00;101080.97;4153044;28;20552;-72
2022/12/21 02:45:56;;;;;;;6.72;4.40;;;7.00;99.90;;;6.07;100.00;101091.31;4169906;28;20064;-72
2022/12/21 02:48:29;;;;;;;14.32;4.20;;;7.10;99.90;;;6.15;100.00;101079.41;4168880;28;20420;-72
2022/12/21 02:50:38;;;;;;;5.65;3.40;;;7.10;99.90;;;6.17;100.00;101073.09;4169711;28;20032;-72
2022/12/21 02:52:54;;;;;;;9.52;4.15;;;7.20;99.90;;;6.21;100.00;101077.16;4168704;28;20033;-72
2022/12/21 02:55:00;;;;;;;7.45;3.80;;;7.20;99.90;;;6.24;100.00;101074.31;4160342;28;20420;-72
2022/12/21 02:57:01;;;;;;;7.40;3.60;;;7.30;99.90;;;6.28;100.00;101078.34;4168811;28;20202;-72
2022/12/21 02:59:04;;;;;;;7.93;4.50;;;7.30;99.90;;;6.34;100.00;101085.72;4169859;28;20040;-72
2022/12/21 03:01:17;;;;;;;13.55;4.13;;;7.30;99.90;;;6.42;100.00;101079.88;4169655;28;20024;-72
2022/12/21 03:03:50;;;;;;;9.65;3.88;;;7.40;99.90;;;6.51;100.00;101076.53;4170111;28;20488;-72
2022/12/21 03:06:27;;;;;;;12.32;4.43;;;7.40;99.90;;;6.55;100.00;101070.06;4169363;28;20396;-72
2022/12/21 03:08:53;;;;;;;8.35;3.80;;;7.50;99.90;;;6.61;100.00;101070.44;4168646;28;20143;-72
2022/12/21 03:11:02;;;;;;;9.85;4.13;;;7.50;99.90;;;6.65;100.00;101063.16;4157706;28;20057;-72
2022/12/21 03:13:46;;;;;;;10.10;3.17;;;7.60;99.90;;;6.74;100.00;101077.31;4168571;28;20033;-72
2022/12/21 03:15:59;;;;;;;8.98;3.83;;;7.70;99.90;;;6.79;100.00;101080.38;4167919;28;20128;-72
2022/12/21 03:18:11;;;;;;;6.15;3.50;;;7.70;99.90;;;6.88;100.00;101090.13;4169564;28;20493;-72
2022/12/21 03:20:35;;;;;;;9.05;3.10;;;7.70;99.90;;;6.90;100.00;101083.81;4169395;28;20029;-72
2022/12/21 03:23:18;;;;;;;10.23;4.03;;;7.80;99.90;;;6.94;100.00;101068.66;4168111;28;20080;-72
2022/12/21 03:25:33;;;;;;;11.57;3.45;;;7.90;99.90;;;7.02;100.00;101071.47;4163062;28;20136;-72
2022/12/21 03:27:38;;;;;;;;;;;7.90;99.90;;;7.03;100.00;101073.16;4156815;28;20026;-72
2022/12/21 03:29:56;;;;;;;9.80;3.25;;;8.00;99.90;;;7.11;100.00;101070.72;4177345;28;20388;-72
2022/12/21 03:32:05;;;;;;;9.85;4.13;;;8.00;99.90;;;7.14;100.00;101075.72;4164108;28;20037;-72
2022/12/21 03:34:31;;;;;;;7.38;3.22;;;8.10;99.90;;;7.19;100.00;101079.66;4168251;28;20059;-73
2022/12/21 03:37:17;;;;;;;10.27;3.33;;;8.10;99.90;;;7.22;100.00;101068.91;4163228;28;20119;-72
2022/12/21 03:39:22;;;;;;;7.93;3.20;;;8.20;99.90;;;7.26;100.00;101066.84;4178103;28;20132;-72
2022/12/21 03:41:38;;;;;;;10.93;3.30;;;8.20;99.90;;;7.29;100.00;101074.47;4184318;28;20029;-72
2022/12/21 03:43:42;;;;;;;7.97;3.15;;;8.20;99.90;;;7.30;100.00;101063.03;4168182;28;20030;-72
2022/12/21 03:46:07;;;;;;;15.15;3.45;;;8.30;99.90;;;7.33;100.00;101085.53;4167923;28;20026;-72
2022/12/21 03:48:26;;;;;;;6.45;3.13;;;8.30;99.90;;;7.35;100.00;101084.44;4167478;28;20044;-72
2022/12/21 03:50:35;;;;;;;6.00;2.88;;;8.30;99.90;;;7.33;100.00;101091.63;4167467;28;20025;-72
2022/12/21 03:53:19;;;;;;;5.32;2.60;;;8.30;99.90;;;7.30;100.00;101081.38;4168992;28;20029;-72
2022/12/21 03:55:27;;;;;;;9.05;2.83;;;8.30;99.90;;;7.32;100.00;101078.66;4160273;28;20521;-72
2022/12/21 03:57:29;;;;;;;7.57;2.70;;;8.30;99.90;;;7.29;100.00;101063.97;4167737;28;20026;-72
2022/12/21 03:59:30;;;;;;;5.72;2.45;;;8.30;99.90;;;7.28;100.00;101067.56;4167623;28;20112;-72
2022/12/21 04:02:08;;;;;;;4.88;2.67;;;8.30;99.90;;;7.29;100.00;101074.47;4151177;28;20578;-72
2022/12/21 04:04:33;;;;;;;7.00;2.83;;;8.20;99.90;;;7.28;100.00;101071.97;4169031;28;20032;-72
2022/12/21 04:06:35;;;;;;;9.85;2.85;;;8.20;99.90;;;7.24;100.00;101077.47;4164422;28;20141;-72
2022/12/21 04:08:37;;;;;;;7.97;2.22;;;8.20;99.90;;;7.22;100.00;101073.31;4167694;28;20083;-72
2022/12/21 04:10:38;;;;;;;8.38;2.53;;;8.20;99.90;;;7.21;100.00;101069.03;4168782;28;20083;-72
2022/12/21 04:12:39;;;;;;;6.82;2.58;;;8.20;99.90;;;7.21;100.00;101069.03;4167681;28;20464;-72
2022/12/21 04:14:40;;;;;;;4.18;1.83;;;8.10;99.90;;;7.12;100.00;101062.75;4167158;28;20041;-72
2022/12/21 04:16:41;;;;;;;9.00;3.00;;;8.10;99.90;;;7.07;100.00;101064.94;4150841;28;20129;-72
2022/12/21 04:21:03;;;;;;;6.93;2.25;;;8.00;99.90;;;6.96;100.00;101074.63;4167383;28;20511;-72
2022/12/21 04:30:07;;;;;;;6.63;2.13;;;7.90;99.90;;;6.94;100.00;101074.75;4168636;28;20040;-72
2022/12/21 04:32:08;;;;;;;6.40;2.20;;;7.90;99.90;;;6.95;100.00;101067.72;4168514;28;20079;-72
2022/12/21 04:34:09;;;;;;;5.38;2.60;;;7.90;99.90;;;6.97;100.00;101069.25;4168672;28;20034;-72
2022/12/21 04:38:35;;;;;;;5.63;3.22;;;8.00;99.90;;;7.06;100.00;101079.00;4168665;28;20087;-72
2022/12/21 04:40:36;;;;;;;8.77;3.75;;;8.00;99.90;;;7.08;100.00;101070.97;4167593;28;20030;-72
2022/12/21 04:42:39;;;;;;;5.35;2.75;;;8.00;99.90;;;7.14;100.00;101073.09;4170230;28;20021;-72
2022/12/21 04:44:40;;;;;;;7.72;2.55;;;8.10;99.90;;;7.14;100.00;101067.84;4171904;28;20530;-72
2022/12/21 04:46:41;;;;;;;6.78;2.88;;;8.10;99.90;;;7.18;100.00;101067.50;4171894;28;20029;-72
2022/12/21 04:48:44;;;;;;;10.23;2.63;;;8.10;99.90;;;7.15;100.00;101057.25;4171857;28;20519;-72
2022/12/21 04:50:45;;;;;;;3.95;2.10;;;8.10;99.90;;;7.12;100.00;101069.78;4170549;28;20382;-72
2022/12/21 04:52:45;;;;;;;10.48;3.10;;;8.10;99.90;;;7.09;100.00;101067.41;4171690;28;20040;-72
2022/12/21 04:54:46;;;;;;;5.50;2.13;;;8.10;99.90;;;7.12;100.00;101072.41;4161466;28;20400;-72
2022/12/21 04:56:47;;;;;;;7.25;2.10;;;8.10;99.90;;;7.19;100.00;101069.16;4171679;28;20493;-72
2022/12/21 04:58:48;;;;;;;7.38;2.83;;;8.10;99.90;;;7.24;100.00;101061.75;4171773;28;20028;-72
2022/12/21 05:00:49;;;;;;;5.82;2.55;;;8.20;99.90;;;7.31;100.00;101076.97;4171406;28;20091;-72
2022/12/21 05:02:50;;;;;;;7.97;2.65;;;8.20;99.90;;;7.35;100.00;101070.53;4171512;28;20033;-72
2022/12/21 05:04:51;;;;;;;5.90;1.92;;;8.30;99.90;;;7.41;100.00;101062.94;4171119;28;20105;-72
2022/12/21 05:06:52;;;;;;;9.80;2.15;;;8.30;99.90;;;7.43;100.00;101060.22;4171518;28;20064;-72
2022/12/21 05:08:53;;;;;;;4.15;1.77;;;8.30;99.90;;;7.46;100.00;101055.53;4171442;28;20029;-72
2022/12/21 05:10:54;;;;;;;6.30;2.17;;;8.40;99.90;;;7.47;100.00;101061.59;4171439;28;20033;-72
2022/12/21 05:12:54;;;;;;;9.73;2.85;;;8.40;99.90;;;7.48;100.00;101056.25;4171217;28;20068;-72
2022/12/21 05:14:55;;;;;;;6.68;1.63;;;8.40;99.90;;;7.55;100.00;101057.41;4170081;28;20017;-72
2022/12/21 05:16:56;;;;;;;12.43;2.17;;;8.50;99.90;;;7.61;100.00;101054.25;4171021;28;20075;-72
2022/12/21 05:18:57;;;;;;;8.95;2.20;;;8.50;99.90;;;7.67;100.00;101059.00;4171185;28;20033;-72
2022/12/21 05:20:58;;;;;;;6.20;1.67;;;8.60;99.90;;;7.72;100.00;101056.81;4170991;28;20072;-72
2022/12/21 05:22:59;;;;;;;6.60;2.13;;;8.60;99.90;;;7.79;100.00;101060.56;4171323;28;20036;-72
2022/12/21 05:25:00;;;;;;;10.80;1.90;;;8.70;99.90;;;7.86;100.00;101057.41;4169981;28;20013;-72
2022/12/21 05:27:01;;;;;;;11.32;1.92;;;8.80;99.90;;;7.91;100.00;101060.50;4171246;28;20393;-72
2022/12/21 05:29:02;;;;;;;12.50;2.30;;;8.80;99.90;;;7.92;100.00;101059.50;4171162;28;20044;-72
2022/12/21 05:31:04;;;;;;;7.95;2.28;;;8.80;99.90;;;7.96;100.00;101058.28;4170018;28;20038;-72
2022/12/21 05:33:05;;;;;;;8.90;1.70;;;8.90;99.90;;;7.99;100.00;101058.88;4169902;28;20033;-72
2022/12/21 05:35:07;;;;;;;8.93;1.50;;;8.90;99.90;;;8.00;100.00;101050.03;4170796;28;20038;-72
2022/12/21 05:37:08;;;;;;;12.98;1.85;;;8.90;99.90;;;8.00;100.00;101046.56;4169923;28;20028;-72
2022/12/21 05:39:09;;;;;;;13.00;1.67;;;8.90;99.90;;;7.98;100.00;101043.22;4171043;28;20481;-72
2022/12/21 05:41:16;;;;;;;9.52;1.20;;;8.90;99.90;;;7.95;100.00;101039.06;4169763;28;20014;-72
2022/12/21 05:43:17;;;;;;;8.88;1.65;;;8.90;99.90;;;7.95;100.00;101031.19;4169782;28;20026;-72
2022/12/21 05:45:18;;;;;;;8.32;2.05;;;8.90;99.90;;;7.99;100.00;101034.38;4153066;28;20110;-72
2022/12/21 05:47:19;;;;;;;10.57;2.03;;;8.90;99.90;;;7.97;100.00;101041.59;4170992;28;20026;-72
2022/12/21 05:49:20;;;;;;;9.20;1.80;;;8.90;99.90;;;8.00;100.00;101030.81;4170686;28;20068;-72
2022/12/21 05:51:21;;;;;;;5.13;1.75;;;8.90;99.90;;;8.04;100.00;101032.19;4169704;28;20068;-72
2022/12/21 05:53:22;;;;;;;7.95;1.75;;;9.00;99.90;;;8.03;100.00;101018.25;4168237;28;20076;-72
2022/12/21 05:55:23;;;;;;;9.52;1.90;;;9.00;99.90;;;8.08;100.00;101018.66;4160300;28;20066;-72
2022/12/21 05:57:24;;;;;;;10.25;1.98;;;9.00;99.90;;;8.06;100.00;101017.97;4170697;28;20096;-72
2022/12/21 05:59:25;;;;;;;11.38;1.90;;;9.00;99.90;;;8.04;100.00;101014.63;4169504;28;20029;-72
2022/12/21 06:01:25;;;;;;;9.32;2.08;;;9.00;99.90;;;8.07;100.00;101011.75;4170163;28;20028;-72
2022/12/21 06:03:26;;;;;;;9.93;2.45;;;9.00;99.90;;;8.08;100.00;101015.19;4169521;28;20022;-72
2022/12/21 06:05:27;;;;;;;7.90;1.77;;;9.10;99.90;;;8.15;100.00;101013.72;4170367;28;20022;-72
2022/12/21 06:07:28;;;;;;;8.75;1.75;;;9.10;99.90;;;8.11;100.00;101000.00;4169259;28;20539;-72
2022/12/21 06:09:29;;;;;;;7.00;1.83;;;9.10;99.90;;;8.15;100.00;101005.84;4170433;28;20022;-72
2022/12/21 06:11:32;;;;;;;9.07;1.90;;;9.10;99.90;;;8.21;100.00;101000.03;4168955;28;20057;-72
2022/12/21 06:13:33;;;;;;;5.90;1.98;;;9.10;99.90;;;8.20;100.00;100996.59;4170485;28;20033;-72
2022/12/21 06:15:34;;;;;;;10.88;2.38;;;9.10;99.90;;;8.22;100.00;100996.44;4168925;28;20100;-72
2022/12/21 06:17:35;;;;;;;11.05;3.08;;;9.20;99.90;;;8.29;100.00;101000.22;4169105;28;20025;-72
2022/12/21 06:19:36;;;;;;;9.93;3.33;;;9.20;99.90;;;8.38;100.00;101001.22;4152233;28;20065;-72
2022/12/21 06:21:37;;;;;;;11.55;3.35;;;9.30;99.90;;;8.45;100.00;101004.97;4170360;28;20367;-72
2022/12/21 06:23:39;;;;;;;12.50;3.42;;;9.40;99.90;;;8.49;100.00;101001.09;4170338;28;20037;-72
2022/12/21 06:25:40;;;;;;;13.38;3.20;;;9.40;99.90;;;8.56;100.00;101010.94;4152451;28;20029;-72
2022/12/21 06:27:40;;;;;;;14.48;2.53;;;9.40;99.90;;;8.56;100.00;101010.09;4170340;28;20026;-72
2022/12/21 06:29:41;;;;;;;13.15;3.03;;;9.50;99.90;;;8.66;100.00;101016.22;4170276;28;20026;-72
2022/12/21 06:31:42;;;;;;;14.23;2.83;;;9.50;99.90;;;8.69;100.00;101011.47;4168900;28;20034;-72
2022/12/21 06:33:43;;;;;;;17.65;2.92;;;9.60;99.90;;;8.72;100.00;101003.31;4170030;28;20030;-72
2022/12/21 06:35:44;;;;;;;8.05;2.60;;;9.70;99.90;;;8.81;100.00;101020.09;4168582;28;20078;-72
2022/12/21 06:37:45;;;;;;;10.02;2.05;;;9.70;99.90;;;8.82;100.00;101009.41;4170142;28;20033;-72
2022/12/21 06:39:46;;;;;;;10.43;2.42;;;9.70;99.90;;;8.85;100.00;101003.88;4168711;28;20033;-72
2022/12/21 06:41:47;;;;;;;15.70;3.40;;;9.80;99.90;;;8.87;100.00;101004.56;4170023;28;20052;-72
2022/12/21 06:43:50;;;;;;;15.80;3.25;;;9.80;99.90;;;8.95;100.00;100995.16;4168829;28;20524;-72
2022/12/21 06:45:56;;;;;;;12.38;2.95;;;9.80;99.90;;;8.98;100.00;100990.47;4169902;28;20022;-72
2022/12/21 06:47:57;;;;;;;13.65;2.80;;;9.90;99.90;;;9.00;100.00;100992.94;4168816;28;20396;-72
2022/12/21 06:49:58;;;;;;;20.17;2.80;;;9.90;99.90;;;9.08;100.00;100995.72;4169425;28;20030;-73
2022/12/21 06:51:59;;;;;;;9.23;2.78;;;10.00;99.90;;;9.09;100.00;100989.47;4169778;28;20037;-73
2022/12/21 06:54:00;;;;;;;9.38;2.42;;;10.00;99.90;;;9.15;100.00;100979.22;4163204;28;20025;-72
2022/12/21 06:56:06;;;;;;;21.77;4.65;;;10.00;99.90;;;9.19;100.00;100974.50;4164593;28;20060;-72
2022/12/21 06:58:07;;;;;;;20.13;2.67;;;10.10;99.90;;;9.23;100.00;100975.88;4169547;28;20029;-72
2022/12/21 07:00:09;;;;;;;13.82;3.45;;;10.10;99.90;;;9.27;100.00;100969.34;4169718;28;20029;-72
2022/12/21 07:02:10;;;;;;;15.63;3.10;;;10.20;99.90;;;9.31;100.00;100973.38;4169774;28;20025;-72
2022/12/21 07:04:11;;;;;;;16.25;3.22;;;10.20;99.90;;;9.42;100.00;100978.47;4169367;28;20029;-71
2022/12/21 07:06:14;;;;;;;11.02;3.28;;;10.20;99.90;;;9.43;100.00;100980.97;4169561;28;20037;-71
2022/12/21 07:08:17;;;;;;;12.00;3.47;;;10.30;99.90;;;9.50;100.00;100981.19;4169759;28;20389;-72
2022/12/21 07:10:18;;;;;;;10.57;2.63;;;10.40;99.90;;;9.54;100.00;100977.31;4168468;28;20036;-72
2022/12/21 07:12:18;;;;;;;16.25;3.65;;;10.40;99.90;;;9.59;100.00;100974.28;4168488;28;20026;-72
2022/12/21 07:14:19;;;;;;;12.25;4.78;;;10.40;99.90;;;9.61;100.00;100973.16;4169136;28;20087;-72
2022/12/21 07:16:21;;;;;;;12.85;3.40;;;10.50;99.90;;;9.67;100.00;100969.94;4168028;28;20048;-72
2022/12/21 07:18:24;;;;;;;11.65;3.63;;;10.50;99.90;;;9.70;100.00;100967.00;4168270;28;20105;-72
2022/12/21 07:20:25;;;;;;;13.80;2.78;;;10.60;99.90;;;9.74;100.00;100967.53;4151569;28;20057;-72
2022/12/21 07:22:25;;;;;;;18.25;3.40;;;10.60;99.90;;;9.79;100.00;100967.94;4170373;28;20026;-72
2022/12/21 07:24:26;;;;;;;8.57;2.22;;;10.70;99.90;;;9.80;100.00;100970.41;4156564;28;20517;-72
2022/12/21 07:26:27;;;;;;;12.30;3.25;;;10.70;99.90;;;9.81;100.00;100969.47;4169405;28;20029;-72
2022/12/21 07:28:29;;;;;;;8.70;2.75;;;10.70;99.90;;;9.89;100.00;100976.63;4169381;28;20025;-72
2022/12/21 07:30:31;;;;;;;11.35;2.70;;;10.70;99.90;;;9.95;100.00;100978.66;4169227;28;20040;-72
2022/12/21 07:32:32;;;;;;;6.95;2.38;;;10.80;99.90;;;9.96;100.00;100973.28;4168219;28;20084;-72
2022/12/21 07:34:34;;;;;;;9.32;2.00;;;10.80;99.90;;;9.98;100.00;100981.84;4167966;28;20484;-71
2022/12/21 07:36:34;;;;;;;11.20;2.38;;;10.80;99.90;;;10.02;100.00;100985.88;4169144;28;20040;-72
2022/12/21 07:38:38;;;;;;;8.18;1.90;;;10.90;99.90;;;10.03;100.00;100982.22;4168966;28;20065;-72
2022/12/21 07:40:39;;;;;;;5.25;2.00;;;10.90;99.90;;;10.05;100.00;100973.34;4168831;28;20025;-71
2022/12/21 07:42:41;;;;;;;7.20;2.08;;;10.90;99.90;;;10.08;100.00;100978.34;4167943;28;20056;-72
2022/12/21 07:44:42;;;;;;;6.80;1.98;;;10.90;99.90;;;10.12;100.00;100966.53;4167678;28;20594;-72
2022/12/21 07:46:44;;;;;;;6.40;1.45;;;11.00;99.90;;;10.10;100.00;100966.66;4167724;28;20026;-72
2022/12/21 07:48:44;;;;;;;7.20;2.38;;;11.00;99.90;;;10.13;100.00;100963.75;4169071;28;20025;-71
2022/12/21 07:50:48;;;;;;;6.13;2.45;;;11.00;99.90;;;10.13;100.00;100957.63;4168851;28;20112;-72
2022/12/21 07:52:49;;;;;;;4.82;1.60;;;11.00;99.90;;;10.14;100.00;100959.31;4167828;28;20037;-72
2022/12/21 07:54:50;;;;;;;9.25;2.50;;;11.00;99.90;;;10.15;100.00;100955.72;4168741;28;20036;-72
2022/12/21 07:56:51;;;;;;;4.22;1.45;;;11.00;99.90;;;10.20;100.00;100956.94;4168988;28;20053;-72
2022/12/21 07:58:52;;;;;;;7.45;1.60;;;11.00;99.90;;;10.22;100.00;100962.03;4167761;28;20088;-72
2022/12/21 08:00:53;;;;;;;5.80;2.25;;;11.10;99.90;;;10.24;100.00;100970.66;4168864;28;20025;-72
2022/12/21 08:02:54;;;;;;;5.28;1.90;;;11.10;99.90;;;10.24;100.00;100963.59;4168752;28;20032;-72
2022/12/21 08:04:55;;;;;;;7.00;2.10;;;11.10;99.90;;;10.29;100.00;100955.22;4168602;28;20022;-72
2022/12/21 08:06:56;;;;;;;10.48;2.60;;;11.20;99.90;;;10.30;100.00;100960.34;4168882;28;20067;-72
2022/12/21 08:08:57;;;;;;;8.40;3.00;;;11.20;99.90;;;10.34;100.00;100950.31;4168847;28;20029;-72
2022/12/21 08:10:58;;;;;;;5.90;2.85;;;11.20;99.90;;;10.38;100.00;100962.22;4167237;28;20030;-71
2022/12/21 08:12:58;;;;;;;8.40;3.03;;;11.20;99.90;;;10.39;100.00;100958.63;4167625;28;20029;-72
2022/12/21 08:14:59;;;;;;;10.30;3.00;;;11.20;99.90;;;10.43;100.00;100960.81;4168577;28;20021;-71
2022/12/21 08:17:00;;;;;;;8.40;3.45;;;11.20;99.90;;;10.37;100.00;100950.84;4167563;28;20029;-71
2022/12/21 08:19:01;;;;;;;10.00;3.42;;;11.30;99.90;;;10.47;100.00;100951.63;4167390;28;20041;-70
2022/12/21 08:21:02;;;;;;;9.30;3.10;;;11.30;99.90;;;10.48;100.00;100947.19;4167514;28;20104;-70
2022/12/21 08:23:03;;;;;;;10.23;3.25;;;11.30;99.90;;;10.51;100.00;100954.78;4167534;28;20022;-71
2022/12/21 08:25:05;;;;;;;11.30;3.58;;;11.40;99.90;;;10.53;100.00;100944.91;4168418;28;20052;-71
2022/12/21 08:27:06;;;;;;;10.60;3.20;;;11.40;99.90;;;10.51;100.00;100938.97;4167271;28;20030;-70
2022/12/21 08:29:07;;;;;;;24.50;4.20;;;11.40;99.90;;;10.51;100.00;100937.13;4167334;28;20063;-70
2022/12/21 08:31:19;;;;;;;19.55;8.00;;;11.40;99.90;;;10.55;100.00;100932.38;4168517;28;20033;-71
2022/12/21 08:33:20;;;;;;;14.95;3.55;;;11.40;99.90;;;10.57;100.00;100929.63;4167380;28;20036;-71
2022/12/21 08:35:21;;;;;;;21.40;4.13;;;11.50;99.90;;;10.62;100.00;100933.44;4167441;28;20038;-71
2022/12/21 08:37:22;;;;;;;13.02;4.10;;;11.40;99.90;;;10.63;100.00;100950.13;4167970;28;20602;-71
2022/12/21 08:39:23;;;;;;;19.27;3.90;;;11.50;99.90;;;10.69;100.00;100938.97;4169613;28;20033;-72
2022/12/21 08:41:24;;;;;;;16.63;3.45;;;11.50;99.90;;;10.70;100.00;100936.16;4168666;28;20096;-71
2022/12/21 08:43:25;;;;;;;15.63;3.40;;;11.50;99.90;;;10.73;100.00;100929.75;4167234;28;20037;-71
2022/12/21 08:45:26;;;;;;;10.82;2.67;;;11.60;99.90;;;10.80;100.00;100931.63;4168275;28;20018;-71
2022/12/21 08:47:27;;;;;;;11.55;2.55;;;11.60;99.90;;;10.76;100.00;100932.91;4167523;28;20509;-71
2022/12/21 08:49:27;;;;;;;10.85;2.55;;;11.60;99.90;;;10.81;100.00;100932.47;4166950;28;20107;-71
2022/12/21 08:51:28;;;;;;;16.08;3.10;;;11.60;99.90;;;10.88;100.00;100921.13;4167059;28;20036;-71
2022/12/21 08:53:30;;;;;;;6.68;2.20;;;11.60;99.90;;;10.95;100.00;100922.19;4167423;28;20477;-70
2022/12/21 08:55:31;;;;;;;12.98;2.50;;;11.70;99.90;;;10.95;100.00;100922.19;4167284;28;20025;-71
2022/12/21 08:57:32;;;;;;;14.25;3.47;;;11.70;99.90;;;10.90;100.00;100900.69;4168623;28;20032;-70